createdAt,value
2022-10-11T00:00:59.170Z,13.15
2022-10-11T00:02:01.534Z,13.88
2022-10-11T00:03:05.783Z,13.98
2022-10-11T00:04:08.266Z,16.55
2022-10-11T00:05:10.857Z,10.75
2022-10-11T00:06:13.084Z,14.75
2022-10-11T00:07:15.272Z,11.02
2022-10-11T00:08:17.668Z,9.75
2022-10-11T00:09:19.975Z,10.85
2022-10-11T00:10:22.261Z,16.48
2022-10-11T00:11:24.571Z,13.43
2022-10-11T00:12:26.765Z,11.13
2022-10-11T00:13:29.625Z,9.63
2022-10-11T00:14:34.103Z,12.13
2022-10-11T00:15:36.408Z,9.20
2022-10-11T00:16:40.994Z,9.70
2022-10-11T00:17:43.886Z,14.02
2022-10-11T00:18:46.396Z,13.07
2022-10-11T00:19:48.965Z,9.30
2022-10-11T00:20:51.164Z,10.45
2022-10-11T00:21:53.575Z,8.70
2022-10-11T00:22:56.007Z,12.57
2022-10-11T00:23:58.461Z,8.63
2022-10-11T00:25:00.846Z,12.15
2022-10-11T00:26:05.735Z,10.40
2022-10-11T00:27:08.314Z,11.77
2022-10-11T00:28:10.712Z,13.23
2022-10-11T00:29:13.053Z,9.88
2022-10-11T00:30:15.688Z,9.68
2022-10-11T00:31:18.338Z,16.08
2022-10-11T00:32:20.737Z,13.95
2022-10-11T00:33:22.986Z,8.40
2022-10-11T00:34:25.690Z,10.45
2022-10-11T00:35:28.077Z,8.77
2022-10-11T00:36:30.260Z,12.15
2022-10-11T00:37:37.010Z,10.75
2022-10-11T00:38:39.423Z,13.10
2022-10-11T00:39:41.754Z,9.90
2022-10-11T00:40:44.471Z,14.05
2022-10-11T00:41:47.875Z,12.13
2022-10-11T00:42:50.265Z,12.80
2022-10-11T00:44:16.342Z,11.05
2022-10-11T00:45:27.719Z,11.32
2022-10-11T00:46:31.192Z,8.20
2022-10-11T00:47:33.424Z,16.13
2022-10-11T00:48:44.673Z,15.02
2022-10-11T00:49:57.870Z,11.35
2022-10-11T00:51:03.014Z,8.80
2022-10-11T00:52:17.134Z,16.60
2022-10-11T00:53:19.599Z,9.48
2022-10-11T00:54:25.677Z,11.02
2022-10-11T00:55:35.129Z,6.30
2022-10-11T00:56:39.904Z,11.20
2022-10-11T00:57:46.102Z,7.57
2022-10-11T00:58:48.640Z,12.27
2022-10-11T00:59:55.085Z,12.65
2022-10-11T01:00:57.919Z,7.40
2022-10-11T01:02:00.435Z,8.85
2022-10-11T01:03:04.828Z,14.38
2022-10-11T01:04:07.065Z,9.55
2022-10-11T01:05:28.631Z,8.77
2022-10-11T01:06:33.452Z,10.38
2022-10-11T01:07:37.804Z,6.10
2022-10-11T01:08:40.270Z,13.30
2022-10-11T01:09:42.425Z,8.68
2022-10-11T01:10:44.962Z,15.82
2022-10-11T01:11:48.411Z,8.10
2022-10-11T01:13:18.300Z,10.90
2022-10-11T01:14:20.571Z,9.05
2022-10-11T01:15:44.603Z,9.00
2022-10-11T01:17:01.580Z,7.30
2022-10-11T01:18:12.679Z,6.35
2022-10-11T01:19:14.922Z,11.85
2022-10-11T01:20:40.716Z,8.43
2022-10-11T01:21:57.645Z,8.43
2022-10-11T01:23:12.102Z,9.55
2022-10-11T01:24:46.777Z,8.63
2022-10-11T01:26:16.860Z,6.97
2022-10-11T01:27:40.973Z,13.98
2022-10-11T01:29:01.232Z,8.50
2022-10-11T01:30:33.065Z,10.73
2022-10-11T01:31:43.043Z,8.30
2022-10-11T01:33:16.539Z,9.15
2022-10-11T01:34:58.569Z,9.65
2022-10-11T01:36:27.705Z,9.07
2022-10-11T01:37:37.708Z,7.15
2022-10-11T01:39:06.739Z,7.53
2022-10-11T01:40:17.603Z,5.65
2022-10-11T01:42:36.400Z,9.20
2022-10-11T01:43:41.112Z,6.40
2022-10-11T01:44:48.135Z,7.97
2022-10-11T01:45:52.344Z,9.93
2022-10-11T01:46:54.843Z,9.05
2022-10-11T01:48:03.977Z,7.80
2022-10-11T01:49:06.773Z,8.02
2022-10-11T01:50:31.426Z,7.32
2022-10-11T01:51:37.487Z,11.77
2022-10-11T01:52:44.491Z,8.57
2022-10-11T01:53:59.268Z,10.05
2022-10-11T01:55:14.025Z,10.32
2022-10-11T01:56:26.085Z,7.03
2022-10-11T01:57:46.759Z,7.72
2022-10-11T01:59:03.783Z,9.90
2022-10-11T02:00:18.037Z,10.88
2022-10-11T02:01:48.240Z,5.53
2022-10-11T02:03:06.146Z,11.57
2022-10-11T02:04:17.042Z,5.70
2022-10-11T02:05:25.136Z,6.05
2022-10-11T02:06:47.327Z,7.72
2022-10-11T02:08:31.238Z,18.58
2022-10-11T02:09:48.283Z,10.93
2022-10-11T02:11:05.775Z,6.38
2022-10-11T02:12:12.751Z,8.55
2022-10-11T02:13:38.030Z,9.32
2022-10-11T02:14:47.095Z,9.82
2022-10-11T02:15:50.659Z,6.10
2022-10-11T02:16:57.802Z,8.98
2022-10-11T02:18:05.992Z,10.00
2022-10-11T02:19:11.929Z,4.57
2022-10-11T02:20:19.876Z,11.32
2022-10-11T02:21:23.726Z,8.18
2022-10-11T02:22:34.078Z,7.10
2022-10-11T02:23:42.260Z,4.85
2022-10-11T02:24:49.189Z,11.27
2022-10-11T02:25:53.621Z,6.63
2022-10-11T02:26:57.515Z,9.57
2022-10-11T02:28:03.418Z,10.93
2022-10-11T02:29:10.304Z,5.65
2022-10-11T02:30:12.845Z,17.85
2022-10-11T02:31:17.165Z,10.48
2022-10-11T02:32:20.863Z,12.32
2022-10-11T02:33:30.071Z,9.32
2022-10-11T02:34:37.678Z,16.80
2022-10-11T02:35:46.104Z,6.50
2022-10-11T02:37:23.377Z,10.60
2022-10-11T02:38:30.338Z,7.40
2022-10-11T02:39:47.427Z,6.82
2022-10-11T02:41:05.635Z,5.75
2022-10-11T02:42:17.385Z,4.35
2022-10-11T02:43:28.332Z,4.95
2022-10-11T02:44:40.382Z,8.48
2022-10-11T02:45:49.951Z,5.47
2022-10-11T02:46:52.426Z,7.15
2022-10-11T02:47:55.009Z,7.90
2022-10-11T02:48:59.975Z,8.77
2022-10-11T02:50:02.907Z,4.97
2022-10-11T02:51:05.905Z,9.02
2022-10-11T02:52:08.140Z,5.10
2022-10-11T02:53:10.441Z,5.97
2022-10-11T02:54:12.735Z,22.13
2022-10-11T02:55:14.907Z,7.63
2022-10-11T02:56:17.191Z,8.75
2022-10-11T02:57:20.124Z,7.82
2022-10-11T02:58:23.475Z,4.88
2022-10-11T02:59:25.766Z,6.40
2022-10-11T03:00:28.114Z,8.88
2022-10-11T03:01:30.352Z,5.35
2022-10-11T03:02:33.063Z,17.35
2022-10-11T03:03:35.169Z,6.38
2022-10-11T03:04:37.563Z,5.68
2022-10-11T03:05:43.867Z,5.90
2022-10-11T03:06:46.111Z,7.70
2022-10-11T03:07:48.575Z,6.93
2022-10-11T03:08:50.704Z,9.73
2022-10-11T03:09:53.022Z,15.73
2022-10-11T03:10:55.171Z,10.77
2022-10-11T03:11:57.313Z,6.95
2022-10-11T03:13:02.604Z,7.50
2022-10-11T03:14:04.790Z,12.55
2022-10-11T03:15:07.342Z,7.30
2022-10-11T03:16:10.113Z,6.32
2022-10-11T03:17:35.014Z,7.80
2022-10-11T03:18:35.315Z,11.38
2022-10-11T03:19:39.926Z,17.10
2022-10-11T03:20:42.162Z,10.90
2022-10-11T03:21:44.720Z,8.60
2022-10-11T03:22:47.011Z,6.70
2022-10-11T03:23:49.391Z,5.13
2022-10-11T03:24:51.659Z,8.45
2022-10-11T03:25:53.835Z,8.50
2022-10-11T03:26:56.140Z,8.02
2022-10-11T03:27:58.491Z,14.93
2022-10-11T03:29:00.639Z,12.63
2022-10-11T03:30:03.674Z,8.18
2022-10-11T03:31:05.953Z,13.13
2022-10-11T03:32:08.102Z,6.65
2022-10-11T03:33:10.659Z,11.32
2022-10-11T03:34:12.853Z,8.20
2022-10-11T03:35:15.349Z,12.80
2022-10-11T03:36:17.657Z,11.75
2022-10-11T03:37:20.094Z,13.75
2022-10-11T03:38:22.799Z,10.80
2022-10-11T03:39:24.947Z,8.60
2022-10-11T03:40:27.234Z,15.10
2022-10-11T03:41:30.115Z,6.07
2022-10-11T03:42:32.277Z,5.38
2022-10-11T03:43:34.576Z,8.98
2022-10-11T03:44:36.780Z,9.15
2022-10-11T03:45:39.713Z,8.18
2022-10-11T03:46:41.860Z,9.82
2022-10-11T03:47:44.061Z,9.30
2022-10-11T03:48:46.356Z,11.57
2022-10-11T03:49:48.548Z,12.02
2022-10-11T03:50:50.740Z,12.98
2022-10-11T03:51:53.039Z,17.85
2022-10-11T03:52:55.193Z,10.25
2022-10-11T03:53:57.755Z,12.43
2022-10-11T03:54:59.909Z,9.10
2022-10-11T03:56:07.375Z,8.35
2022-10-11T03:57:10.714Z,12.77
2022-10-11T03:58:12.878Z,7.40
2022-10-11T03:59:15.046Z,7.25
2022-10-11T04:00:17.283Z,12.57
2022-10-11T04:01:19.594Z,9.90
2022-10-11T04:02:21.773Z,10.00
2022-10-11T04:03:23.993Z,12.68
2022-10-11T04:04:26.283Z,10.30
2022-10-11T04:05:28.455Z,12.35
2022-10-11T04:06:30.800Z,9.30
2022-10-11T04:07:33.351Z,8.35
2022-10-11T04:08:35.606Z,14.55
2022-10-11T04:09:38.121Z,13.43
2022-10-11T04:10:40.929Z,19.45
2022-10-11T04:11:43.077Z,14.23
2022-10-11T04:12:46.129Z,7.55
2022-10-11T04:13:48.492Z,8.23
2022-10-11T04:14:50.639Z,12.02
2022-10-11T04:15:52.909Z,11.10
2022-10-11T04:16:59.528Z,16.88
2022-10-11T04:18:02.469Z,10.05
2022-10-11T04:19:05.262Z,9.32
2022-10-11T04:20:08.044Z,10.95
2022-10-11T04:21:12.921Z,9.60
2022-10-11T04:22:15.246Z,7.72
2022-10-11T04:23:17.375Z,15.93
2022-10-11T04:24:19.846Z,13.30
2022-10-11T04:25:22.033Z,14.63
2022-10-11T04:26:24.285Z,16.00
2022-10-11T04:27:29.891Z,13.45
2022-10-11T04:28:33.143Z,12.02
2022-10-11T04:29:35.496Z,10.75
2022-10-11T04:30:37.689Z,10.88
2022-10-11T04:31:40.183Z,12.75
2022-10-11T04:32:42.703Z,13.57
2022-10-11T04:33:44.905Z,11.90
2022-10-11T04:34:47.324Z,10.77
2022-10-11T04:35:53.066Z,18.02
2022-10-11T04:36:55.241Z,12.65
2022-10-11T04:37:57.399Z,8.52
2022-10-11T04:39:01.771Z,10.52
2022-10-11T04:40:06.030Z,11.55
2022-10-11T04:41:09.982Z,9.23
2022-10-11T04:42:12.190Z,12.90
2022-10-11T04:43:16.636Z,22.10
2022-10-11T04:44:19.153Z,11.60
2022-10-11T04:45:21.825Z,9.00
2022-10-11T04:46:24.930Z,10.20
2022-10-11T04:47:27.194Z,12.25
2022-10-11T04:48:29.390Z,11.75
2022-10-11T04:49:31.701Z,9.27
2022-10-11T04:50:34.099Z,11.98
2022-10-11T04:51:36.284Z,12.90
2022-10-11T04:52:38.599Z,11.00
2022-10-11T04:53:40.775Z,11.77
2022-10-11T04:54:43.123Z,10.65
2022-10-11T04:55:45.448Z,14.35
2022-10-11T04:56:47.634Z,12.63
2022-10-11T04:57:49.815Z,8.85
2022-10-11T04:58:54.290Z,12.60
2022-10-11T04:59:56.729Z,14.23
2022-10-11T05:00:59.203Z,10.80
2022-10-11T05:02:01.464Z,17.55
2022-10-11T05:03:03.664Z,13.32
2022-10-11T05:04:05.925Z,10.77
2022-10-11T05:05:08.800Z,13.38
2022-10-11T05:06:11.236Z,12.70
2022-10-11T05:07:13.810Z,14.50
2022-10-11T05:08:16.350Z,15.40
2022-10-11T05:09:18.782Z,11.50
2022-10-11T05:10:21.040Z,14.32
2022-10-11T05:11:23.291Z,14.95
2022-10-11T05:12:25.632Z,15.10
2022-10-11T05:13:29.733Z,12.27
2022-10-11T05:14:31.939Z,12.02
2022-10-11T05:15:34.630Z,16.20
2022-10-11T05:16:36.767Z,12.65
2022-10-11T05:17:38.986Z,21.63
2022-10-11T05:18:41.439Z,14.75
2022-10-11T05:19:44.051Z,10.35
2022-10-11T05:20:46.415Z,13.45
2022-10-11T05:21:48.782Z,22.70
2022-10-11T05:22:51.191Z,9.93
2022-10-11T05:23:57.607Z,15.32
2022-10-11T05:25:00.122Z,21.35
2022-10-11T05:26:03.654Z,9.25
2022-10-11T05:27:06.020Z,11.00
2022-10-11T05:28:08.458Z,13.07
2022-10-11T05:29:10.649Z,10.27
2022-10-11T05:30:13.073Z,15.90
2022-10-11T05:31:16.403Z,11.27
2022-10-11T05:32:18.517Z,12.35
2022-10-11T05:33:21.404Z,13.07
2022-10-11T05:34:23.552Z,13.35
2022-10-11T05:35:26.061Z,14.27
2022-10-11T05:36:28.224Z,13.82
2022-10-11T05:37:30.387Z,9.85
2022-10-11T05:38:32.518Z,21.27
2022-10-11T05:39:34.856Z,13.82
2022-10-11T05:40:44.098Z,19.17
2022-10-11T05:41:46.244Z,17.55
2022-10-11T05:42:48.378Z,13.80
2022-10-11T05:43:50.598Z,14.80
2022-10-11T05:44:53.100Z,14.43
2022-10-11T05:45:55.500Z,16.58
2022-10-11T05:46:57.659Z,18.05
2022-10-11T05:47:59.954Z,19.75
2022-10-11T05:49:02.118Z,14.10
2022-10-11T05:50:04.447Z,15.55
2022-10-11T05:51:10.064Z,11.80
2022-10-11T05:52:13.242Z,11.18
2022-10-11T05:53:15.727Z,12.25
2022-10-11T05:54:18.075Z,16.90
2022-10-11T05:55:20.641Z,12.50
2022-10-11T05:56:24.785Z,16.20
2022-10-11T05:57:27.216Z,20.02
2022-10-11T05:58:29.444Z,11.77
2022-10-11T05:59:31.604Z,9.82
2022-10-11T06:00:40.431Z,17.77
2022-10-11T06:01:42.689Z,13.25
2022-10-11T06:02:45.205Z,11.82
2022-10-11T06:03:47.691Z,12.93
2022-10-11T06:04:50.308Z,20.58
2022-10-11T06:05:56.733Z,16.88
2022-10-11T06:06:59.407Z,15.93
2022-10-11T06:08:02.949Z,14.57
2022-10-11T06:09:05.254Z,12.98
2022-10-11T06:10:08.210Z,17.88
2022-10-11T06:11:15.084Z,14.77
2022-10-11T06:12:17.780Z,15.45
2022-10-11T06:13:19.967Z,23.60
2022-10-11T06:14:22.346Z,18.42
2022-10-11T06:15:25.163Z,11.80
2022-10-11T06:16:27.796Z,13.85
2022-10-11T06:17:29.920Z,11.88
2022-10-11T06:18:32.478Z,16.65
2022-10-11T06:19:34.655Z,15.52
2022-10-11T06:20:37.179Z,19.30
2022-10-11T06:21:39.826Z,15.07
2022-10-11T06:22:42.680Z,13.13
2022-10-11T06:23:48.737Z,11.57
2022-10-11T06:24:50.914Z,10.30
2022-10-11T06:25:57.561Z,17.92
2022-10-11T06:27:00.443Z,26.90
2022-10-11T06:28:03.062Z,13.52
2022-10-11T06:29:05.964Z,18.40
2022-10-11T06:30:08.949Z,17.00
2022-10-11T06:31:12.203Z,16.20
2022-10-11T06:32:14.429Z,18.20
2022-10-11T06:33:31.789Z,14.55
2022-10-11T06:34:34.125Z,17.02
2022-10-11T06:35:36.260Z,12.95
2022-10-11T06:36:38.618Z,15.10
2022-10-11T06:37:40.773Z,12.48
2022-10-11T06:38:45.212Z,21.02
2022-10-11T06:39:47.847Z,13.43
2022-10-11T06:40:49.973Z,17.25
2022-10-11T06:41:52.505Z,17.73
2022-10-11T06:42:54.639Z,16.65
2022-10-11T06:43:57.375Z,15.50
2022-10-11T06:44:59.750Z,16.77
2022-10-11T06:46:02.164Z,14.85
2022-10-11T06:47:06.759Z,15.15
2022-10-11T06:48:09.380Z,11.30
2022-10-11T06:49:11.503Z,16.70
2022-10-11T06:50:13.782Z,13.40
2022-10-11T06:51:19.275Z,16.75
2022-10-11T06:52:21.691Z,20.40
2022-10-11T06:53:23.834Z,20.15
2022-10-11T06:54:26.763Z,17.73
2022-10-11T06:55:28.956Z,13.18
2022-10-11T06:56:31.611Z,16.13
2022-10-11T06:57:33.781Z,15.60
2022-10-11T06:58:37.127Z,13.40
2022-10-11T06:59:39.317Z,16.63
2022-10-11T07:00:41.641Z,14.30
2022-10-11T07:01:43.996Z,16.48
2022-10-11T07:02:47.945Z,14.88
2022-10-11T07:03:52.349Z,17.08
2022-10-11T07:04:54.955Z,16.88
2022-10-11T07:06:08.024Z,20.90
2022-10-11T07:07:13.645Z,14.60
2022-10-11T07:08:15.779Z,15.80
2022-10-11T07:09:18.062Z,16.55
2022-10-11T07:10:20.228Z,12.15
2022-10-11T07:11:25.507Z,13.93
2022-10-11T07:12:28.837Z,20.98
2022-10-11T07:13:31.219Z,16.40
2022-10-11T07:14:33.499Z,23.45
2022-10-11T07:15:41.089Z,12.73
2022-10-11T07:16:43.215Z,15.40
2022-10-11T07:17:45.573Z,14.07
2022-10-11T07:18:54.796Z,15.32
2022-10-11T07:19:59.628Z,16.92
2022-10-11T07:21:07.660Z,14.10
2022-10-11T07:22:09.877Z,15.00
2022-10-11T07:23:12.493Z,10.93
2022-10-11T07:24:14.839Z,15.52
2022-10-11T07:25:17.349Z,18.85
2022-10-11T07:26:19.976Z,17.92
2022-10-11T07:27:23.405Z,16.52
2022-10-11T07:28:26.892Z,11.30
2022-10-11T07:29:29.168Z,13.77
2022-10-11T07:30:31.636Z,16.73
2022-10-11T07:31:33.798Z,11.93
2022-10-11T07:32:36.078Z,18.52
2022-10-11T07:33:38.451Z,15.45
2022-10-11T07:34:40.802Z,19.98
2022-10-11T07:35:48.074Z,16.00
2022-10-11T07:36:50.685Z,16.52
2022-10-11T07:37:53.025Z,18.27
2022-10-11T07:38:55.186Z,15.27
2022-10-11T07:39:57.455Z,13.52
2022-10-11T07:41:00.028Z,14.20
2022-10-11T07:42:02.494Z,13.75
2022-10-11T07:43:04.628Z,11.88
2022-10-11T07:44:06.833Z,25.33
2022-10-11T07:45:09.337Z,23.98
2022-10-11T07:46:11.898Z,21.13
2022-10-11T07:47:14.067Z,12.82
2022-10-11T07:48:16.398Z,19.45
2022-10-11T07:49:18.560Z,15.45
2022-10-11T07:50:20.862Z,19.65
2022-10-11T07:51:24.398Z,22.33
2022-10-11T07:52:26.547Z,18.25
2022-10-11T07:53:31.243Z,13.82
2022-10-11T07:54:33.721Z,20.98
2022-10-11T07:55:40.341Z,19.13
2022-10-11T07:56:42.512Z,27.42
2022-10-11T07:57:44.666Z,28.30
2022-10-11T07:58:51.609Z,25.98
2022-10-11T07:59:53.769Z,14.52
2022-10-11T08:00:56.123Z,27.45
2022-10-11T08:01:58.491Z,16.02
2022-10-11T08:03:07.263Z,24.17
2022-10-11T08:04:10.259Z,17.63
2022-10-11T08:05:12.699Z,14.70
2022-10-11T08:06:23.217Z,19.05
2022-10-11T08:07:26.276Z,13.77
2022-10-11T08:08:28.616Z,18.92
2022-10-11T08:09:31.735Z,20.05
2022-10-11T08:10:40.696Z,14.43
2022-10-11T08:11:45.666Z,21.70
2022-10-11T08:12:48.456Z,19.70
2022-10-11T08:13:53.340Z,19.98
2022-10-11T08:14:55.969Z,23.15
2022-10-11T08:15:58.515Z,14.55
2022-10-11T08:17:03.432Z,20.75
2022-10-11T08:18:05.633Z,19.02
2022-10-11T08:19:07.883Z,20.67
2022-10-11T08:20:10.421Z,13.93
2022-10-11T08:21:16.895Z,19.73
2022-10-11T08:22:19.121Z,18.42
2022-10-11T08:23:21.385Z,21.67
2022-10-11T08:24:24.993Z,19.98
2022-10-11T08:25:27.212Z,20.50
2022-10-11T08:26:32.427Z,15.02
2022-10-11T08:27:34.838Z,17.42
2022-10-11T08:28:37.289Z,20.85
2022-10-11T08:29:39.569Z,32.85
2022-10-11T08:30:48.016Z,14.57
2022-10-11T08:31:52.938Z,22.25
2022-10-11T08:32:55.336Z,23.45
2022-10-11T08:33:59.827Z,17.42
2022-10-11T08:35:02.186Z,26.60
2022-10-11T08:36:07.168Z,24.05
2022-10-11T08:37:12.524Z,15.40
2022-10-11T08:38:15.506Z,19.17
2022-10-11T08:39:17.737Z,18.45
2022-10-11T08:40:22.250Z,14.95
2022-10-11T08:41:27.830Z,23.77
2022-10-11T08:42:48.861Z,16.52
2022-10-11T08:44:26.484Z,17.67
2022-10-11T08:45:35.428Z,21.35
2022-10-11T08:46:42.219Z,18.08
2022-10-11T08:47:45.884Z,26.45
2022-10-11T08:48:52.091Z,21.98
2022-10-11T08:49:55.183Z,20.83
2022-10-11T08:51:01.165Z,21.83
2022-10-11T08:52:13.686Z,18.15
2022-10-11T08:53:48.009Z,16.92
2022-10-11T08:55:04.657Z,20.17
2022-10-11T08:56:09.405Z,16.08
2022-10-11T08:57:16.264Z,18.98
2022-10-11T08:58:42.436Z,22.67
2022-10-11T08:59:52.311Z,19.38
2022-10-11T09:00:56.623Z,14.85
2022-10-11T09:02:13.620Z,17.08
2022-10-11T09:03:31.466Z,20.40
2022-10-11T09:04:34.744Z,19.08
2022-10-11T09:05:48.501Z,22.83
2022-10-11T09:07:04.558Z,20.35
2022-10-11T09:08:25.594Z,22.20
2022-10-11T09:10:27.990Z,18.70
2022-10-11T09:11:55.102Z,13.23
2022-10-11T09:13:17.643Z,22.08
2022-10-11T09:14:38.373Z,21.40
2022-10-11T09:15:55.422Z,19.08
2022-10-11T09:17:07.606Z,21.55
2022-10-11T09:18:18.664Z,21.02
2022-10-11T09:19:27.412Z,22.67
2022-10-11T09:21:00.731Z,18.65
2022-10-11T09:22:17.004Z,21.25
2022-10-11T09:23:35.388Z,17.73
2022-10-11T09:25:12.794Z,25.33
2022-10-11T09:26:23.133Z,23.58
2022-10-11T09:28:05.647Z,21.25
2022-10-11T09:29:31.385Z,21.35
2022-10-11T09:30:40.189Z,20.02
2022-10-11T09:31:48.148Z,25.30
2022-10-11T09:33:03.890Z,25.80
2022-10-11T09:34:12.059Z,19.67
2022-10-11T09:35:14.542Z,21.23
2022-10-11T09:36:19.972Z,24.33
2022-10-11T09:37:42.005Z,18.63
2022-10-11T09:39:04.325Z,22.98
2022-10-11T09:40:35.104Z,26.33
2022-10-11T09:42:05.562Z,15.27
2022-10-11T09:43:09.306Z,18.45
2022-10-11T09:44:23.522Z,21.35
2022-10-11T09:45:25.832Z,21.05
2022-10-11T09:46:44.621Z,18.83
2022-10-11T09:47:48.362Z,19.25
2022-10-11T09:48:51.938Z,18.20
2022-10-11T09:50:15.655Z,24.63
2022-10-11T09:51:21.522Z,17.67
2022-10-11T09:52:25.464Z,29.92
2022-10-11T09:53:59.464Z,21.25
2022-10-11T09:55:02.834Z,23.27
2022-10-11T09:56:05.680Z,27.50
2022-10-11T09:57:23.615Z,15.48
2022-10-11T09:58:35.335Z,19.40
2022-10-11T09:59:37.643Z,22.50
2022-10-11T10:00:39.806Z,15.40
2022-10-11T10:01:42.066Z,21.45
2022-10-11T10:02:53.246Z,23.45
2022-10-11T10:04:17.015Z,19.10
2022-10-11T10:05:22.606Z,20.92
2022-10-11T10:06:27.550Z,24.55
2022-10-11T10:07:32.479Z,18.08
2022-10-11T10:08:35.693Z,20.90
2022-10-11T10:09:37.997Z,17.88
2022-10-11T10:10:55.791Z,19.17
2022-10-11T10:12:12.358Z,24.00
2022-10-11T10:13:22.353Z,17.55
2022-10-11T10:14:28.234Z,13.77
2022-10-11T10:15:49.237Z,16.65
2022-10-11T10:17:06.305Z,12.82
2022-10-11T10:18:22.384Z,19.15
2022-10-11T10:19:25.449Z,22.48
2022-10-11T10:20:33.512Z,14.60
2022-10-11T10:21:46.583Z,16.90
2022-10-11T10:22:49.173Z,19.15
2022-10-11T10:23:55.382Z,12.85
2022-10-11T10:25:02.261Z,18.17
2022-10-11T10:26:13.639Z,20.95
2022-10-11T10:27:24.687Z,14.68
2022-10-11T10:28:27.543Z,18.52
2022-10-11T10:29:29.843Z,12.50
2022-10-11T10:30:35.585Z,13.20
2022-10-11T10:32:12.760Z,18.13
2022-10-11T10:33:13.057Z,15.77
2022-10-11T10:34:19.417Z,18.63
2022-10-11T10:35:41.288Z,11.48
2022-10-11T10:36:47.605Z,19.90
2022-10-11T10:38:05.318Z,14.98
2022-10-11T10:39:18.425Z,11.77
2022-10-11T10:40:25.560Z,14.77
2022-10-11T10:41:27.841Z,15.18
2022-10-11T10:42:30.025Z,14.80
2022-10-11T10:43:37.586Z,15.38
2022-10-11T10:44:39.852Z,16.73
2022-10-11T10:46:08.498Z,12.52
2022-10-11T10:47:26.011Z,15.27
2022-10-11T10:49:19.062Z,16.05
2022-10-11T10:50:16.256Z,12.68
2022-10-11T10:51:41.220Z,13.88
2022-10-11T10:53:05.229Z,11.95
2022-10-11T10:54:44.385Z,22.80
2022-10-11T10:55:59.889Z,16.15
2022-10-11T10:57:10.056Z,14.95
2022-10-11T10:58:34.263Z,9.18
2022-10-11T11:00:00.148Z,16.23
2022-10-11T11:01:24.004Z,15.00
2022-10-11T11:02:52.587Z,13.07
2022-10-11T11:04:10.067Z,12.00
2022-10-11T11:05:12.519Z,15.20
2022-10-11T11:06:38.591Z,11.40
2022-10-11T11:08:06.878Z,13.75
2022-10-11T11:09:29.056Z,8.50
2022-10-11T11:10:40.092Z,10.82
2022-10-11T11:11:49.078Z,13.10
2022-10-11T11:13:14.319Z,18.38
2022-10-11T11:14:28.474Z,12.38
2022-10-11T11:15:40.892Z,11.95
2022-10-11T11:17:17.508Z,12.20
2022-10-11T11:18:22.754Z,12.43
2022-10-11T11:19:36.985Z,16.33
2022-10-11T11:20:55.355Z,14.07
2022-10-11T11:22:30.499Z,11.98
2022-10-11T11:23:43.819Z,13.85
2022-10-11T11:24:57.811Z,12.65
2022-10-11T11:26:18.245Z,14.00
2022-10-11T11:27:54.106Z,15.73
2022-10-11T11:28:59.205Z,11.82
2022-10-11T11:30:14.477Z,17.00
2022-10-11T11:31:36.384Z,10.68
2022-10-11T11:32:57.100Z,16.92
2022-10-11T11:34:13.946Z,8.00
2022-10-11T11:35:23.935Z,11.38
2022-10-11T11:36:44.303Z,12.20
2022-10-11T11:37:48.494Z,14.07
2022-10-11T11:39:01.735Z,14.50
2022-10-11T11:40:31.783Z,15.75
2022-10-11T11:41:47.730Z,15.27
2022-10-11T11:43:06.624Z,13.02
2022-10-11T11:44:27.318Z,8.77
2022-10-11T11:45:54.866Z,11.23
2022-10-11T11:47:03.129Z,14.55
2022-10-11T11:48:24.812Z,15.07
2022-10-11T11:49:50.100Z,17.23
2022-10-11T11:51:30.539Z,13.02
2022-10-11T11:52:44.084Z,18.73
2022-10-11T11:53:52.502Z,15.18
2022-10-11T11:55:03.817Z,13.45
2022-10-11T11:56:34.001Z,12.38
2022-10-11T11:58:24.052Z,11.82
2022-10-11T12:00:03.986Z,12.18
2022-10-11T12:01:31.505Z,12.60
2022-10-11T12:02:47.841Z,15.07
2022-10-11T12:03:55.172Z,10.10
2022-10-11T12:04:58.134Z,10.15
2022-10-11T12:06:35.945Z,15.93
2022-10-11T12:07:51.781Z,14.10
2022-10-11T12:09:22.757Z,14.98
2022-10-11T12:10:33.636Z,10.98
2022-10-11T12:11:44.459Z,19.65
2022-10-11T12:12:47.339Z,8.10
2022-10-11T12:13:52.162Z,17.83
2022-10-11T12:15:10.109Z,10.07
2022-10-11T12:16:15.624Z,10.55
2022-10-11T12:17:21.731Z,11.65
2022-10-11T12:18:24.161Z,7.75
2022-10-11T12:19:27.446Z,14.18
2022-10-11T12:20:29.966Z,11.43
2022-10-11T12:21:39.221Z,16.85
2022-10-11T12:22:58.300Z,12.55
2022-10-11T12:24:13.095Z,7.85
2022-10-11T12:25:18.493Z,9.63
2022-10-11T12:26:36.899Z,7.75
2022-10-11T12:27:46.332Z,11.70
2022-10-11T12:29:28.834Z,8.73
2022-10-11T12:30:53.353Z,7.40
2022-10-11T12:31:58.442Z,17.98
2022-10-11T12:33:15.240Z,6.78
2022-10-11T12:34:34.836Z,8.20
2022-10-11T12:35:40.035Z,7.85
2022-10-11T12:36:44.294Z,7.95
2022-10-11T12:37:51.439Z,9.15
2022-10-11T12:39:18.425Z,11.88
2022-10-11T12:40:42.367Z,8.20
2022-10-11T12:41:47.277Z,11.05
2022-10-11T12:43:14.292Z,6.63
2022-10-11T12:44:22.844Z,9.90
2022-10-11T12:45:31.799Z,13.15
2022-10-11T12:46:40.899Z,13.90
2022-10-11T12:48:06.198Z,9.05
2022-10-11T12:49:33.596Z,9.85
2022-10-11T12:50:42.000Z,7.70
2022-10-11T12:52:17.925Z,13.32
2022-10-11T12:53:26.196Z,12.02
2022-10-11T12:55:05.733Z,14.80
2022-10-11T12:56:41.863Z,11.10
2022-10-11T12:58:15.117Z,10.15
2022-10-11T12:59:21.370Z,7.82
2022-10-11T13:00:31.101Z,13.85
2022-10-11T13:01:37.430Z,10.27
2022-10-11T13:02:44.469Z,11.50
2022-10-11T13:04:00.024Z,11.63
2022-10-11T13:05:22.401Z,9.77
2022-10-11T13:06:28.133Z,12.25
2022-10-11T13:07:31.048Z,7.32
2022-10-11T13:08:37.230Z,10.57
2022-10-11T13:09:45.309Z,12.05
2022-10-11T13:12:03.070Z,15.45
2022-10-11T13:13:15.695Z,9.10
2022-10-11T13:14:21.596Z,11.65
2022-10-11T13:15:24.462Z,9.52
2022-10-11T13:16:45.958Z,13.18
2022-10-11T13:17:54.345Z,11.32
2022-10-11T13:18:59.519Z,11.98
2022-10-11T13:20:08.666Z,10.60
2022-10-11T13:21:36.148Z,14.65
2022-10-11T13:22:40.289Z,10.27
2022-10-11T13:23:42.452Z,11.32
2022-10-11T13:24:45.109Z,9.93
2022-10-11T13:25:48.131Z,7.38
2022-10-11T13:26:54.585Z,10.65
2022-10-11T13:27:59.484Z,10.10
2022-10-11T13:29:01.920Z,11.73
2022-10-11T13:30:11.306Z,13.43
2022-10-11T13:31:13.496Z,10.52
2022-10-11T13:32:26.232Z,10.65
2022-10-11T13:33:35.708Z,8.88
2022-10-11T13:34:40.323Z,8.55
2022-10-11T13:35:42.513Z,12.10
2022-10-11T13:36:44.993Z,9.95
2022-10-11T13:37:49.009Z,9.80
2022-10-11T13:38:58.075Z,11.77
2022-10-11T13:40:00.346Z,20.02
2022-10-11T13:41:08.884Z,12.77
2022-10-11T13:42:16.910Z,11.30
2022-10-11T13:43:27.966Z,10.60
2022-10-11T13:44:33.029Z,14.60
2022-10-11T13:45:36.994Z,11.63
2022-10-11T13:46:41.690Z,9.80
2022-10-11T13:47:44.728Z,9.63
2022-10-11T13:48:56.276Z,10.60
2022-10-11T13:50:33.559Z,8.05
2022-10-11T13:51:37.639Z,8.85
2022-10-11T13:52:58.731Z,6.90
2022-10-11T13:55:04.592Z,7.82
2022-10-11T13:56:09.201Z,8.70
2022-10-11T13:57:13.353Z,9.07
2022-10-11T13:58:20.148Z,11.25
2022-10-11T13:59:25.669Z,8.88
2022-10-11T14:00:39.131Z,9.70
2022-10-11T14:01:45.284Z,8.77
2022-10-11T14:02:56.205Z,7.40
2022-10-11T14:04:04.888Z,6.35
2022-10-11T14:05:07.579Z,10.60
2022-10-11T14:06:10.329Z,7.07
2022-10-11T14:07:29.755Z,11.40
2022-10-11T14:08:38.866Z,7.68
2022-10-11T14:09:47.219Z,9.10
2022-10-11T14:10:54.207Z,6.95
2022-10-11T14:12:35.559Z,8.43
2022-10-11T14:13:39.056Z,10.80
2022-10-11T14:14:42.847Z,6.88
2022-10-11T14:15:45.085Z,8.52
2022-10-11T14:16:58.644Z,7.07
2022-10-11T14:18:03.253Z,8.20
2022-10-11T14:19:10.726Z,12.80
2022-10-11T14:20:18.275Z,6.05
2022-10-11T14:21:20.388Z,5.60
2022-10-11T14:22:22.541Z,8.75
2022-10-11T14:23:24.747Z,10.68
2022-10-11T14:24:27.124Z,9.93
2022-10-11T14:25:29.714Z,9.57
2022-10-11T14:26:41.067Z,10.20
2022-10-11T14:27:43.337Z,13.77
2022-10-11T14:28:51.370Z,7.47
2022-10-11T14:30:23.594Z,10.63
2022-10-11T14:31:16.341Z,12.27
2022-10-11T14:32:24.259Z,11.85
2022-10-11T14:33:26.629Z,10.05
2022-10-11T14:34:29.786Z,8.80
2022-10-11T14:35:32.612Z,10.70
2022-10-11T14:36:34.782Z,8.90
2022-10-11T14:37:37.045Z,8.02
2022-10-11T14:38:39.257Z,10.77
2022-10-11T14:39:41.845Z,10.05
2022-10-11T14:40:45.129Z,9.65
2022-10-11T14:41:47.741Z,7.22
2022-10-11T14:42:50.649Z,8.63
2022-10-11T14:43:56.359Z,15.23
2022-10-11T14:44:58.538Z,8.73
2022-10-11T14:46:00.907Z,7.50
2022-10-11T14:47:06.578Z,9.80
2022-10-11T14:48:09.106Z,7.10
2022-10-11T14:49:14.677Z,10.85